Time;durP1;ratioP1;P1;durP2;ratioP2;P2;SDS_P1;SDS_P2;PMS_P1;PMS_P2;Temp;Humidity;BMP_temperature;BMP_pressure;BME280_temperature;BME280_humidity;BME280_pressure;Samples;Min_cycle;Max_cycle;Signal;HPM_P1;HPM_P2
2023/12/06 00:01:42;;;;;;;43.47;20.42;;;0.40;99.90;;;;;;5052596;28;20037;-52
2023/12/06 00:04:08;;;;;;;41.10;20.83;;;0.40;99.90;;;;;;5052750;28;20041;-50
2023/12/06 00:06:33;;;;;;;39.15;19.25;;;0.40;99.90;;;;;;5051571;28;20394;-52
2023/12/06 00:08:59;;;;;;;42.85;20.92;;;0.20;99.90;;;;;;5052555;28;20052;-51
2023/12/06 00:11:25;;;;;;;39.95;19.80;;;0.40;99.90;;;;;;5052611;28;20158;-49
2023/12/06 00:13:51;;;;;;;43.40;20.60;;;0.20;99.90;;;;;;5052505;28;20037;-51
2023/12/06 00:16:17;;;;;;;44.85;21.95;;;0.20;99.90;;;;;;5052446;28;20056;-49
2023/12/06 00:18:43;;;;;;;39.58;20.17;;;0.20;99.90;;;;;;5052537;28;20033;-51
2023/12/06 00:21:09;;;;;;;39.72;18.88;;;0.50;99.90;;;;;;5051331;28;20477;-51
2023/12/06 00:23:35;;;;;;;39.90;20.38;;;0.40;99.90;;;;;;5051031;28;20060;-51
2023/12/06 00:26:01;;;;;;;44.35;20.67;;;0.40;99.90;;;;;;5052080;28;20037;-49
2023/12/06 00:28:27;;;;;;;38.38;19.70;;;0.40;99.90;;;;;;5051913;28;20057;-51
2023/12/06 00:30:53;;;;;;;39.92;19.70;;;0.30;99.90;;;;;;5052165;28;20370;-50
2023/12/06 00:33:18;;;;;;;39.85;19.77;;;0.20;99.90;;;;;;5052345;28;20037;-53
2023/12/06 00:35:44;;;;;;;42.05;20.27;;;0.60;99.90;;;;;;5052346;28;20064;-48
2023/12/06 00:38:10;;;;;;;40.20;20.80;;;0.70;99.90;;;;;;5051892;28;20045;-50
2023/12/06 00:40:35;;;;;;;37.33;18.60;;;0.60;99.90;;;;;;5052270;28;20049;-50
2023/12/06 00:43:04;;;;;;;39.35;19.45;;;0.70;99.90;;;;;;5052223;28;20489;-49
2023/12/06 00:45:30;;;;;;;37.67;19.63;;;0.50;99.90;;;;;;5052250;28;20045;-49
2023/12/06 00:47:55;;;;;;;39.33;19.98;;;0.60;99.90;;;;;;5050605;28;20134;-49
2023/12/06 00:50:21;;;;;;;37.00;20.35;;;0.50;99.90;;;;;;5051748;28;20079;-52
2023/12/06 00:52:47;;;;;;;39.55;19.85;;;0.60;99.90;;;;;;5051821;28;20051;-49
2023/12/06 00:55:13;;;;;;;39.08;19.52;;;0.50;99.90;;;;;;5070487;28;20037;-49
2023/12/06 00:57:38;;;;;;;39.10;19.27;;;0.70;99.90;;;;;;5071914;28;20051;-48
2023/12/06 01:00:06;;;;;;;39.83;20.05;;;0.50;99.90;;;;;;5072068;28;20041;-50
2023/12/06 01:02:32;;;;;;;37.97;19.13;;;0.70;99.90;;;;;;5071891;28;20843;-49
2023/12/06 01:04:57;;;;;;;36.60;18.15;;;0.60;99.90;;;;;;5072033;28;20072;-49
2023/12/06 01:07:23;;;;;;;39.55;19.58;;;0.80;99.90;;;;;;5071535;28;20485;-48
2023/12/06 01:09:49;;;;;;;37.75;19.38;;;0.70;99.90;;;;;;5071627;28;20036;-49
2023/12/06 01:12:14;;;;;;;36.38;19.20;;;0.70;99.90;;;;;;5071733;28;20040;-49
2023/12/06 01:14:40;;;;;;;36.40;19.67;;;0.50;99.90;;;;;;5072089;28;20032;-48
2023/12/06 01:17:05;;;;;;;36.90;18.13;;;0.60;99.90;;;;;;5071708;28;20041;-49
2023/12/06 01:19:31;;;;;;;35.00;18.63;;;0.60;99.90;;;;;;5075571;28;20040;-50
2023/12/06 01:21:57;;;;;;;35.53;18.73;;;0.50;99.90;;;;;;5075858;28;20052;-50
2023/12/06 01:24:23;;;;;;;36.13;18.63;;;0.80;99.90;;;;;;5075883;28;20072;-48
2023/12/06 01:26:49;;;;;;;32.85;17.08;;;0.60;99.90;;;;;;5075707;28;20424;-47
2023/12/06 01:29:14;;;;;;;34.20;17.25;;;0.60;99.90;;;;;;5075085;28;20044;-49
2023/12/06 01:31:41;;;;;;;32.60;17.40;;;0.80;99.90;;;;;;5075673;28;20492;-48
2023/12/06 01:34:07;;;;;;;34.25;17.55;;;0.70;99.90;;;;;;5075619;28;20036;-47
2023/12/06 01:36:33;;;;;;;35.58;18.83;;;0.60;99.90;;;;;;5075552;28;20041;-49
2023/12/06 01:38:59;;;;;;;33.38;17.55;;;0.70;99.90;;;;;;5075581;28;20041;-50
2023/12/06 01:41:24;;;;;;;32.25;17.23;;;0.70;99.90;;;;;;5075306;28;20047;-49
2023/12/06 01:43:50;;;;;;;30.33;16.13;;;0.90;99.90;;;;;;5075162;28;20056;-48
2023/12/06 01:46:16;;;;;;;35.25;17.23;;;0.80;99.90;;;;;;5075059;28;20040;-51
2023/12/06 01:48:46;;;;;;;32.22;16.98;;;1.00;99.90;;;;;;5074962;28;20032;-51
2023/12/06 01:51:13;;;;;;;28.02;16.02;;;0.90;99.90;;;;;;5075074;28;20041;-52
2023/12/06 01:53:39;;;;;;;28.50;16.45;;;0.90;99.90;;;;;;5069710;28;20451;-50
2023/12/06 01:56:06;;;;;;;27.75;15.25;;;1.10;99.90;;;;;;5055063;28;20041;-51
2023/12/06 01:58:34;;;;;;;28.45;15.18;;;0.90;99.90;;;;;;5054787;28;20037;-49
2023/12/06 02:01:01;;;;;;;25.88;15.65;;;1.10;99.90;;;;;;5054980;28;20090;-52
2023/12/06 02:03:26;;;;;;;28.40;15.75;;;1.00;99.90;;;;;;5054693;28;20037;-52
2023/12/06 02:05:53;;;;;;;28.98;15.85;;;1.10;99.90;;;;;;5055056;28;20087;-48
2023/12/06 02:08:19;;;;;;;27.63;15.60;;;1.10;99.90;;;;;;5056711;28;20366;-49
2023/12/06 02:10:45;;;;;;;24.52;14.60;;;1.10;99.90;;;;;;5074971;28;20036;-48
2023/12/06 02:13:11;;;;;;;28.65;16.45;;;1.10;99.90;;;;;;5074527;28;20044;-47
2023/12/06 02:15:37;;;;;;;26.80;15.85;;;1.00;99.90;;;;;;5073612;28;20587;-51
2023/12/06 02:18:03;;;;;;;26.50;14.60;;;1.10;99.90;;;;;;5074729;28;20075;-49
2023/12/06 02:20:30;;;;;;;28.00;15.30;;;1.10;99.90;;;;;;5073340;28;20132;-53
2023/12/06 02:22:58;;;;;;;27.85;15.52;;;1.10;99.90;;;;;;5074794;28;20041;-50
2023/12/06 02:25:24;;;;;;;25.40;14.25;;;1.00;99.90;;;;;;5057164;28;20036;-51
2023/12/06 02:27:50;;;;;;;23.45;14.32;;;1.10;99.90;;;;;;5074277;28;20068;-49
2023/12/06 02:30:16;;;;;;;22.55;13.98;;;1.10;99.90;;;;;;5073287;28;20051;-49
2023/12/06 02:32:41;;;;;;;22.95;13.50;;;1.00;99.90;;;;;;5074304;28;20036;-61
2023/12/06 02:35:28;;;;;;;24.65;14.15;;;1.10;99.90;;;;;;5074477;28;20487;-62
2023/12/06 02:37:56;;;;;;;23.58;14.38;;;1.20;99.90;;;;;;5074548;28;20048;-61
2023/12/06 02:40:25;;;;;;;24.88;14.07;;;1.20;99.90;;;;;;5074123;28;20055;-61
2023/12/06 02:42:50;;;;;;;22.90;14.00;;;1.20;99.90;;;;;;5074154;28;20079;-61
2023/12/06 02:45:16;;;;;;;24.33;14.25;;;1.10;99.90;;;;;;5074076;28;20079;-62
2023/12/06 02:47:42;;;;;;;25.70;13.30;;;1.10;99.90;;;;;;5073950;28;20473;-62
2023/12/06 02:50:08;;;;;;;24.75;14.05;;;1.20;99.90;;;;;;5073926;28;20044;-61
2023/12/06 02:52:34;;;;;;;23.92;13.85;;;1.10;99.90;;;;;;5074203;28;20041;-61
2023/12/06 02:55:00;;;;;;;22.17;13.35;;;1.20;99.90;;;;;;5057216;28;20183;-61
2023/12/06 02:57:25;;;;;;;24.00;14.05;;;1.20;99.90;;;;;;5053762;28;20516;-62
2023/12/06 02:59:51;;;;;;;23.27;13.85;;;1.10;99.90;;;;;;5053768;28;20037;-61
2023/12/06 03:02:16;;;;;;;21.95;13.57;;;1.10;99.90;;;;;;5053964;28;20037;-60
2023/12/06 03:04:42;;;;;;;21.55;13.45;;;1.10;99.90;;;;;;5053852;28;20052;-61
2023/12/06 03:07:08;;;;;;;22.85;14.13;;;1.20;99.90;;;;;;5053592;28;20045;-62
2023/12/06 03:09:34;;;;;;;23.70;14.88;;;1.20;99.90;;;;;;5053368;28;20048;-61
2023/12/06 03:11:59;;;;;;;26.48;13.95;;;1.10;99.90;;;;;;5053484;28;20044;-49
2023/12/06 03:14:25;;;;;;;24.10;13.13;;;1.30;99.90;;;;;;5053281;28;20036;-50
2023/12/06 03:16:50;;;;;;;22.35;13.30;;;1.10;99.90;;;;;;5052061;28;20068;-51
2023/12/06 03:19:16;;;;;;;24.70;14.30;;;1.20;99.90;;;;;;5053151;28;20040;-52
2023/12/06 03:21:42;;;;;;;24.13;13.32;;;1.30;99.90;;;;;;5053399;28;20037;-50
2023/12/06 03:24:07;;;;;;;21.88;13.20;;;1.20;99.90;;;;;;5053373;28;20041;-51
2023/12/06 03:26:33;;;;;;;21.83;12.93;;;1.20;99.90;;;;;;5053484;28;20045;-48
2023/12/06 03:28:59;;;;;;;21.45;12.85;;;1.20;99.90;;;;;;5052928;28;20505;-50
2023/12/06 03:31:24;;;;;;;19.50;12.13;;;1.20;99.90;;;;;;5053367;28;20047;-61
2023/12/06 03:33:50;;;;;;;20.58;12.18;;;1.20;99.90;;;;;;5053369;28;20075;-60
2023/12/06 03:36:16;;;;;;;20.40;11.95;;;1.40;99.90;;;;;;5053065;28;20033;-61
2023/12/06 03:38:42;;;;;;;20.23;11.95;;;1.40;99.90;;;;;;5053324;28;20556;-62
2023/12/06 03:41:08;;;;;;;22.48;11.80;;;1.30;99.90;;;;;;5052993;28;20044;-61
2023/12/06 03:43:34;;;;;;;19.60;11.75;;;1.40;99.90;;;;;;5052958;28;20067;-61
2023/12/06 03:45:59;;;;;;;21.88;12.25;;;1.30;99.90;;;;;;5052830;28;20484;-61
2023/12/06 03:48:25;;;;;;;18.95;11.02;;;1.40;99.90;;;;;;5052975;28;20036;-62
2023/12/06 03:50:50;;;;;;;20.80;11.55;;;1.30;99.90;;;;;;5051527;28;20600;-62
2023/12/06 03:53:16;;;;;;;19.60;11.57;;;1.30;99.90;;;;;;5052748;28;20060;-62
2023/12/06 03:55:42;;;;;;;17.42;10.95;;;1.40;99.90;;;;;;5052703;28;20041;-61
2023/12/06 03:58:07;;;;;;;16.95;11.32;;;1.40;99.90;;;;;;5052701;28;20037;-61
2023/12/06 04:00:33;;;;;;;18.63;10.52;;;1.40;99.90;;;;;;5052828;28;20049;-61
2023/12/06 04:02:59;;;;;;;17.60;10.35;;;1.40;99.90;;;;;;5052937;28;20499;-61
2023/12/06 04:05:24;;;;;;;18.13;11.18;;;1.30;99.90;;;;;;5052419;28;20047;-61
2023/12/06 04:07:50;;;;;;;17.23;10.95;;;1.20;99.90;;;;;;5052429;28;20120;-61
2023/12/06 04:10:16;;;;;;;18.48;11.02;;;1.20;99.90;;;;;;5052618;28;20086;-61
2023/12/06 04:12:41;;;;;;;18.52;10.68;;;1.30;99.90;;;;;;5052457;28;20183;-62
2023/12/06 04:15:07;;;;;;;17.45;10.82;;;1.30;99.90;;;;;;5052567;28;20469;-62
2023/12/06 04:17:33;;;;;;;19.83;11.70;;;1.10;99.90;;;;;;5052315;28;20045;-61
2023/12/06 04:19:59;;;;;;;18.17;11.57;;;1.20;99.90;;;;;;5052474;28;20037;-62
2023/12/06 04:22:24;;;;;;;21.13;11.45;;;1.20;99.90;;;;;;5052343;28;20417;-62
2023/12/06 04:24:50;;;;;;;21.73;12.30;;;1.10;99.90;;;;;;5052220;28;20045;-62
2023/12/06 04:27:16;;;;;;;20.42;10.95;;;1.20;99.90;;;;;;5052247;28;20045;-62
2023/12/06 04:29:41;;;;;;;21.23;11.98;;;1.00;99.90;;;;;;5051961;28;20389;-62
2023/12/06 04:32:07;;;;;;;18.42;12.05;;;1.10;99.90;;;;;;5052087;28;20481;-62
2023/12/06 04:34:33;;;;;;;23.05;12.35;;;1.20;99.90;;;;;;5052445;28;20079;-62
2023/12/06 04:36:59;;;;;;;19.65;12.25;;;1.20;99.90;;;;;;5052376;28;20458;-62
2023/12/06 04:39:24;;;;;;;21.60;12.55;;;1.20;99.90;;;;;;5052043;28;20036;-61
2023/12/06 04:41:50;;;;;;;20.88;11.90;;;1.20;99.90;;;;;;5052231;28;20051;-62
2023/12/06 04:44:16;;;;;;;19.05;11.57;;;1.00;99.90;;;;;;5052255;28;20051;-62
2023/12/06 04:46:42;;;;;;;19.38;11.73;;;1.10;99.90;;;;;;5050904;28;20135;-62
2023/12/06 04:49:08;;;;;;;19.25;11.40;;;1.10;99.90;;;;;;5052023;28;20044;-61
2023/12/06 04:51:33;;;;;;;19.10;12.02;;;1.00;99.90;;;;;;5052047;28;20045;-62
2023/12/06 04:53:59;;;;;;;18.17;11.57;;;1.00;99.90;;;;;;5059995;28;20044;-62
2023/12/06 04:56:24;;;;;;;18.98;11.13;;;1.00;99.90;;;;;;5071936;28;20064;-49
2023/12/06 04:58:50;;;;;;;18.60;12.02;;;1.20;99.90;;;;;;5072139;28;20489;-50
2023/12/06 05:01:16;;;;;;;20.20;12.15;;;1.10;99.90;;;;;;5072013;28;20032;-49
2023/12/06 05:03:41;;;;;;;19.40;11.38;;;1.00;99.90;;;;;;5071910;28;20496;-52
2023/12/06 05:06:07;;;;;;;20.40;11.48;;;1.10;99.90;;;;;;5072071;28;20093;-49
2023/12/06 05:08:33;;;;;;;20.38;12.15;;;1.10;99.90;;;;;;5072066;28;20048;-49
2023/12/06 05:10:58;;;;;;;20.52;11.82;;;1.00;99.90;;;;;;5071571;28;20550;-50
2023/12/06 05:13:24;;;;;;;19.38;11.60;;;1.20;99.90;;;;;;5071989;28;20680;-51
2023/12/06 05:15:49;;;;;;;19.88;11.82;;;1.20;99.90;;;;;;5071674;28;20049;-51
2023/12/06 05:18:15;;;;;;;18.40;11.55;;;1.20;99.90;;;;;;5071673;28;20060;-51
2023/12/06 05:20:41;;;;;;;21.38;11.90;;;1.20;99.90;;;;;;5071882;28;20044;-50
2023/12/06 05:23:06;;;;;;;19.40;11.35;;;1.70;99.90;;;;;;5070398;28;20512;-48
2023/12/06 05:25:32;;;;;;;17.98;10.73;;;1.30;99.90;;;;;;5072011;28;20043;-50
2023/12/06 05:27:58;;;;;;;18.58;11.85;;;1.30;99.90;;;;;;5071187;28;20061;-52
2023/12/06 05:30:24;;;;;;;22.30;11.32;;;1.30;99.90;;;;;;5071661;28;20130;-51
2023/12/06 05:32:50;;;;;;;20.77;10.95;;;1.30;99.90;;;;;;5071651;28;20032;-50
2023/12/06 05:35:16;;;;;;;17.10;10.40;;;1.30;99.90;;;;;;5071658;28;20042;-50
2023/12/06 05:37:41;;;;;;;18.63;10.73;;;1.20;99.90;;;;;;5071492;28;20126;-48
2023/12/06 05:40:07;;;;;;;17.38;10.50;;;1.40;99.90;;;;;;5071411;28;20047;-51
2023/12/06 05:42:33;;;;;;;17.90;11.23;;;1.30;99.90;;;;;;5071234;28;20048;-47
2023/12/06 05:44:59;;;;;;;15.80;10.20;;;1.20;99.90;;;;;;5071732;28;20047;-51
2023/12/06 05:47:25;;;;;;;19.08;10.65;;;1.40;99.90;;;;;;5071273;28;20077;-49
2023/12/06 05:49:51;;;;;;;17.40;10.77;;;1.30;99.90;;;;;;5071268;28;20059;-48
2023/12/06 05:52:16;;;;;;;20.88;11.45;;;1.50;99.90;;;;;;5071157;28;20040;-49
2023/12/06 05:54:42;;;;;;;17.55;9.85;;;1.50;99.90;;;;;;5056729;28;20044;-49
2023/12/06 05:57:09;;;;;;;16.67;10.60;;;1.40;99.90;;;;;;5051328;28;20040;-49
2023/12/06 05:59:34;;;;;;;19.15;11.18;;;1.40;99.90;;;;;;5051266;28;20075;-49
2023/12/06 06:02:00;;;;;;;16.00;10.40;;;1.40;99.90;;;;;;5051404;28;20112;-50
2023/12/06 06:04:26;;;;;;;17.13;10.20;;;1.50;99.90;;;;;;5051889;28;20052;-50
2023/12/06 06:06:52;;;;;;;17.15;10.15;;;1.50;99.90;;;;;;5054828;28;20187;-48
2023/12/06 06:09:19;;;;;;;15.98;10.70;;;1.60;99.90;;;;;;5054677;28;20512;-52
2023/12/06 06:11:45;;;;;;;16.38;10.15;;;1.70;99.90;;;;;;5054917;28;20037;-49
2023/12/06 06:14:11;;;;;;;14.90;9.50;;;1.60;99.90;;;;;;5054884;28;20496;-52
2023/12/06 06:16:37;;;;;;;15.63;10.60;;;1.70;99.90;;;;;;5054950;28;20041;-48
2023/12/06 06:19:02;;;;;;;17.55;10.35;;;1.70;99.90;;;;;;5054621;28;20037;-52
2023/12/06 06:21:28;;;;;;;16.92;10.30;;;1.70;99.90;;;;;;5054671;28;20037;-50
2023/12/06 06:23:54;;;;;;;15.20;9.90;;;1.70;99.90;;;;;;5054784;28;20040;-52
2023/12/06 06:26:19;;;;;;;14.77;8.77;;;1.70;99.90;;;;;;5054309;28;20045;-53
2023/12/06 06:28:45;;;;;;;15.30;8.73;;;1.60;99.90;;;;;;5054195;28;20059;-51
2023/12/06 06:31:10;;;;;;;15.45;8.68;;;1.60;99.90;;;;;;5054194;28;20128;-62
2023/12/06 06:33:36;;;;;;;15.43;9.25;;;1.60;99.90;;;;;;5054037;28;20071;-62
2023/12/06 06:36:02;;;;;;;17.58;9.70;;;1.70;99.90;;;;;;5053491;28;20049;-61
2023/12/06 06:38:28;;;;;;;16.50;9.65;;;1.60;99.90;;;;;;5068539;28;20036;-61
2023/12/06 06:40:54;;;;;;;14.23;9.05;;;1.70;99.90;;;;;;5073326;28;20557;-61
2023/12/06 06:43:19;;;;;;;13.63;8.38;;;1.70;99.90;;;;;;5073462;28;20053;-62
2023/12/06 06:45:45;;;;;;;16.73;8.85;;;1.60;99.90;;;;;;5073364;28;20040;-62
2023/12/06 06:48:11;;;;;;;14.88;9.60;;;1.60;99.90;;;;;;5073073;28;20045;-61
2023/12/06 06:50:36;;;;;;;13.18;8.27;;;1.70;99.90;;;;;;5073296;28;20076;-62
2023/12/06 06:53:03;;;;;;;15.18;8.88;;;1.60;99.90;;;;;;5073142;28;20453;-61
2023/12/06 06:55:28;;;;;;;14.95;8.13;;;1.70;99.90;;;;;;5073072;28;20068;-62
2023/12/06 06:57:54;;;;;;;16.58;8.80;;;1.60;99.90;;;;;;5073252;28;20082;-61
2023/12/06 07:00:20;;;;;;;12.88;8.18;;;1.50;99.90;;;;;;5073275;28;20090;-62
2023/12/06 07:02:47;;;;;;;18.63;8.93;;;1.60;99.90;;;;;;5073001;28;20041;-62
2023/12/06 07:05:13;;;;;;;13.15;9.10;;;1.50;99.90;;;;;;5073266;28;20048;-62
2023/12/06 07:07:42;;;;;;;16.33;9.20;;;1.50;99.90;;;;;;5071357;28;20043;-62
2023/12/06 07:10:09;;;;;;;14.00;8.52;;;1.60;99.90;;;;;;5073010;28;20040;-62
2023/12/06 07:12:36;;;;;;;14.40;8.18;;;1.60;99.90;;;;;;5072691;28;20581;-62
2023/12/06 07:15:02;;;;;;;15.13;8.63;;;1.50;99.90;;;;;;5071757;28;20044;-61
2023/12/06 07:17:29;;;;;;;16.13;9.50;;;1.60;99.90;;;;;;5072320;28;20036;-60
2023/12/06 07:19:55;;;;;;;19.40;9.18;;;1.60;99.90;;;;;;5071573;28;20032;-62
2023/12/06 07:22:24;;;;;;;14.73;8.15;;;1.60;99.90;;;;;;5072358;28;20055;-62
2023/12/06 07:24:50;;;;;;;17.10;8.93;;;1.60;99.90;;;;;;5072614;28;20177;-61
2023/12/06 07:27:16;;;;;;;16.67;8.85;;;1.70;99.90;;;;;;5072313;28;20131;-62
2023/12/06 07:29:44;;;;;;;15.32;9.23;;;1.60;99.90;;;;;;5072201;28;20056;-62
2023/12/06 07:32:10;;;;;;;18.98;9.20;;;1.80;99.90;;;;;;5072619;28;20121;-59
2023/12/06 07:34:36;;;;;;;15.02;8.60;;;1.70;99.90;;;;;;5072642;28;20079;-62
2023/12/06 07:37:02;;;;;;;14.70;9.25;;;1.70;99.90;;;;;;5072471;28;20040;-62
2023/12/06 07:39:27;;;;;;;13.95;8.57;;;1.90;99.90;;;;;;5072279;28;20535;-61
2023/12/06 07:41:53;;;;;;;16.42;9.20;;;1.80;99.90;;;;;;5072507;28;20075;-62
2023/12/06 07:44:20;;;;;;;16.20;8.93;;;2.00;99.90;;;;;;5053732;28;20044;-62
2023/12/06 07:46:46;;;;;;;17.27;9.63;;;1.90;99.90;;;;;;5071865;28;20040;-61
2023/12/06 07:49:12;;;;;;;17.30;9.23;;;1.90;99.90;;;;;;5071763;28;20381;-61
2023/12/06 07:51:38;;;;;;;17.10;9.80;;;2.00;99.90;;;;;;5072029;28;20044;-62
2023/12/06 07:54:04;;;;;;;14.73;9.68;;;2.00;99.90;;;;;;5072029;28;20544;-61
2023/12/06 07:56:30;;;;;;;14.20;8.90;;;1.90;99.90;;;;;;5072035;28;20480;-61
2023/12/06 07:58:57;;;;;;;15.77;9.63;;;2.10;99.90;;;;;;5072068;28;20036;-61
2023/12/06 08:01:24;;;;;;;20.52;9.70;;;2.00;99.90;;;;;;5071831;28;20044;-61
2023/12/06 08:03:50;;;;;;;18.83;10.60;;;2.10;99.90;;;;;;5071213;28;20063;-62
2023/12/06 08:06:18;;;;;;;20.20;10.50;;;2.10;99.90;;;;;;5053811;28;20098;-61
2023/12/06 08:08:43;;;;;;;18.33;10.65;;;2.10;99.90;;;;;;5071815;28;20036;-61
2023/12/06 08:11:10;;;;;;;15.60;9.90;;;2.20;99.90;;;;;;5071946;28;20514;-62
2023/12/06 08:13:35;;;;;;;16.48;9.60;;;2.10;99.90;;;;;;5071819;28;20057;-61
2023/12/06 08:16:01;;;;;;;19.40;10.70;;;2.10;99.90;;;;;;5071594;28;20044;-62
2023/12/06 08:18:27;;;;;;;17.27;10.63;;;2.10;99.90;;;;;;5070461;28;20439;-61
2023/12/06 08:20:53;;;;;;;16.73;10.30;;;2.10;99.90;;;;;;5070006;28;20052;-61
2023/12/06 08:23:21;;;;;;;17.20;10.95;;;2.20;99.90;;;;;;5071531;28;20047;-61
2023/12/06 08:25:46;;;;;;;16.88;10.10;;;2.10;99.90;;;;;;5071696;28;20052;-61
2023/12/06 08:28:12;;;;;;;16.95;10.02;;;2.20;99.90;;;;;;5070333;28;20059;-62
2023/12/06 08:30:38;;;;;;;14.32;9.35;;;2.20;99.90;;;;;;5053387;28;20170;-61
2023/12/06 08:33:04;;;;;;;15.00;8.88;;;2.30;99.90;;;;;;5071344;28;20123;-62
2023/12/06 08:35:29;;;;;;;13.25;7.90;;;2.30;99.90;;;;;;5071533;28;20044;-62
2023/12/06 08:37:55;;;;;;;13.80;8.20;;;2.30;99.90;;;;;;5069971;28;20048;-62
2023/12/06 08:40:21;;;;;;;14.43;7.53;;;2.30;99.90;;;;;;5071225;28;20052;-61
2023/12/06 08:42:47;;;;;;;11.93;7.82;;;2.20;99.90;;;;;;5071251;28;20105;-62
2023/12/06 08:45:13;;;;;;;12.02;6.80;;;2.30;99.90;;;;;;5071499;28;20051;-61
2023/12/06 08:47:42;;;;;;;11.05;7.22;;;2.30;99.90;;;;;;5069687;28;20500;-62
2023/12/06 08:50:08;;;;;;;12.95;7.18;;;2.30;99.90;;;;;;5071099;28;20044;-61
2023/12/06 08:52:34;;;;;;;13.02;6.80;;;2.30;99.90;;;;;;5071074;28;20052;-62
2023/12/06 08:55:00;;;;;;;11.82;6.75;;;2.30;99.90;;;;;;5054140;28;20045;-62
2023/12/06 08:57:27;;;;;;;11.32;6.97;;;2.20;99.90;;;;;;5050861;28;20794;-61
2023/12/06 08:59:53;;;;;;;12.05;6.85;;;2.20;99.90;;;;;;5051201;28;20048;-61
2023/12/06 09:02:18;;;;;;;10.48;5.85;;;2.10;99.90;;;;;;5051028;28;20409;-61
2023/12/06 09:04:44;;;;;;;11.25;6.40;;;2.10;99.90;;;;;;5049871;28;20053;-50
2023/12/06 09:07:10;;;;;;;9.93;6.55;;;2.10;99.90;;;;;;5050847;28;20570;-51
2023/12/06 09:09:36;;;;;;;11.30;5.95;;;1.90;99.90;;;;;;5050938;28;20049;-50
2023/12/06 09:12:02;;;;;;;12.77;7.50;;;1.90;99.90;;;;;;5050785;28;20045;-50
2023/12/06 09:14:27;;;;;;;11.32;6.78;;;2.00;99.90;;;;;;5059861;28;20041;-49
2023/12/06 09:16:53;;;;;;;14.25;6.38;;;1.90;99.90;;;;;;5070855;28;20041;-51
2023/12/06 09:19:20;;;;;;;9.98;6.18;;;1.90;99.90;;;;;;5070911;28;20037;-61
2023/12/06 09:21:47;;;;;;;11.75;6.25;;;1.80;99.90;;;;;;5070658;28;20062;-61
2023/12/06 09:24:13;;;;;;;12.82;6.90;;;2.00;99.90;;;;;;5070688;28;20629;-61
2023/12/06 09:26:40;;;;;;;14.57;7.50;;;1.90;99.90;;;;;;5070690;28;20044;-61
2023/12/06 09:29:10;;;;;;;12.35;6.28;;;2.10;99.90;;;;;;5070345;28;20102;-62
2023/12/06 09:31:37;;;;;;;12.10;6.93;;;2.10;99.90;;;;;;5070980;28;20048;-62
2023/12/06 09:34:03;;;;;;;14.95;6.95;;;2.20;99.90;;;;;;5053087;28;20051;-61
2023/12/06 09:36:30;;;;;;;10.80;6.15;;;2.20;99.90;;;;;;5070584;28;20040;-60
2023/12/06 09:38:57;;;;;;;10.88;6.85;;;2.20;99.90;;;;;;5071727;28;20052;-47
2023/12/06 09:41:31;;;;;;;9.63;5.97;;;2.40;99.90;;;;;;5074427;28;20047;-48
2023/12/06 09:43:57;;;;;;;10.57;5.97;;;2.20;99.90;;;;;;5072887;28;20119;-48
2023/12/06 09:46:23;;;;;;;11.75;6.22;;;2.40;99.90;;;;;;5074229;28;20135;-48
2023/12/06 09:48:49;;;;;;;10.43;5.97;;;2.40;99.90;;;;;;5074412;28;20070;-48
2023/12/06 09:51:15;;;;;;;10.82;6.18;;;2.30;99.90;;;;;;5074450;28;20032;-48
2023/12/06 09:53:41;;;;;;;9.77;6.40;;;2.30;99.90;;;;;;5074304;28;20037;-47
2023/12/06 09:56:09;;;;;;;9.93;5.72;;;2.30;99.90;;;;;;5074559;28;20174;-46
2023/12/06 09:58:35;;;;;;;11.90;5.57;;;2.20;99.90;;;;;;5074329;28;20036;-48
2023/12/06 10:01:02;;;;;;;11.55;6.03;;;2.30;99.90;;;;;;5073880;28;20565;-62
2023/12/06 10:03:27;;;;;;;11.75;6.32;;;2.20;99.90;;;;;;5070190;28;20041;-62
2023/12/06 10:05:58;;;;;;;9.65;5.45;;;2.30;99.90;;;;;;5060858;28;20473;-62
2023/12/06 10:08:24;;;;;;;9.75;5.70;;;2.30;99.90;;;;;;5062167;28;20047;-62
2023/12/06 10:11:09;;;;;;;9.32;5.53;;;2.20;99.90;;;;;;5062727;28;20032;-62
2023/12/06 10:13:40;;;;;;;10.68;5.35;;;2.20;99.90;;;;;;5064583;28;20200;-62
2023/12/06 10:16:35;;;;;;;11.15;5.63;;;2.10;99.90;;;;;;5064698;28;20098;-61
2023/12/06 10:19:01;;;;;;;10.57;5.93;;;2.20;99.90;;;;;;5063715;28;20373;-62
2023/12/06 10:21:30;;;;;;;9.75;5.72;;;2.20;99.90;;;;;;5063920;28;20079;-61
2023/12/06 10:23:59;;;;;;;14.10;6.93;;;2.20;99.90;;;;;;5067570;28;20052;-59
2023/12/06 10:26:29;;;;;;;12.65;6.60;;;2.20;99.90;;;;;;5067292;28;20098;-60
2023/12/06 10:28:55;;;;;;;12.98;7.20;;;2.30;99.90;;;;;;5067314;28;20098;-60
2023/12/06 10:31:20;;;;;;;12.35;7.75;;;2.30;99.90;;;;;;5066611;28;20080;-61
2023/12/06 10:33:56;;;;;;;13.00;8.15;;;2.40;99.90;;;;;;5067509;28;20040;-61
2023/12/06 10:36:25;;;;;;;12.93;7.93;;;2.30;99.90;;;;;;5065621;28;20046;-62
2023/12/06 10:38:51;;;;;;;12.93;7.63;;;2.40;99.90;;;;;;5064889;28;20076;-61
2023/12/06 10:41:21;;;;;;;12.88;7.85;;;2.40;99.90;;;;;;5066904;28;20386;-59
2023/12/06 10:43:48;;;;;;;13.85;7.90;;;2.40;99.90;;;;;;5066705;28;20036;-60
2023/12/06 10:46:15;;;;;;;14.45;7.45;;;2.40;99.90;;;;;;5067556;28;20047;-63
2023/12/06 10:48:42;;;;;;;12.13;7.50;;;2.40;99.90;;;;;;5066852;28;20043;-63
2023/12/06 10:51:09;;;;;;;13.90;8.10;;;2.50;99.90;;;;;;5066114;28;20123;-63
2023/12/06 10:53:37;;;;;;;13.10;7.22;;;2.60;99.90;;;;;;5066288;28;20032;-59
2023/12/06 10:56:04;;;;;;;12.02;7.07;;;2.60;99.90;;;;;;5063709;28;20072;-59
2023/12/06 10:58:30;;;;;;;12.52;7.72;;;2.60;99.90;;;;;;5065646;28;20423;-57
2023/12/06 11:00:58;;;;;;;12.45;7.80;;;2.60;99.90;;;;;;5065827;28;20086;-58
2023/12/06 11:03:23;;;;;;;12.93;7.45;;;2.70;99.90;;;;;;5064345;28;20068;-59
2023/12/06 11:05:53;;;;;;;13.38;7.63;;;2.70;99.90;;;;;;5066777;28;20083;-61
2023/12/06 11:08:37;;;;;;;14.43;8.73;;;2.70;99.90;;;;;;5065393;28;20100;-62
2023/12/06 11:11:24;;;;;;;12.63;7.55;;;2.60;99.90;;;;;;5066445;28;20133;-62
2023/12/06 11:13:53;;;;;;;12.07;7.20;;;2.70;99.90;;;;;;5066552;28;20083;-62
2023/12/06 11:16:52;;;;;;;12.63;7.65;;;2.70;99.90;;;;;;5065942;28;20388;-61
2023/12/06 11:19:18;;;;;;;15.73;7.35;;;2.70;99.90;;;;;;5062284;28;20098;-60
2023/12/06 11:21:44;;;;;;;14.55;7.38;;;2.80;99.90;;;;;;5069025;28;20048;-62
2023/12/06 11:24:13;;;;;;;11.57;7.07;;;2.70;99.90;;;;;;5070105;28;20044;-62
2023/12/06 11:26:40;;;;;;;11.73;6.95;;;2.60;99.90;;;;;;5072243;28;20041;-62
2023/12/06 11:29:06;;;;;;;11.48;6.97;;;2.60;99.90;;;;;;5071739;28;20102;-61
2023/12/06 11:31:35;;;;;;;11.95;7.22;;;2.70;99.90;;;;;;5072079;28;20044;-62
2023/12/06 11:34:12;;;;;;;11.52;6.72;;;2.70;99.90;;;;;;5072229;28;20051;-61
2023/12/06 11:36:38;;;;;;;12.38;6.38;;;2.70;99.90;;;;;;5072342;28;20032;-62
2023/12/06 11:39:14;;;;;;;12.38;7.38;;;2.80;99.90;;;;;;5072170;28;20070;-62
2023/12/06 11:41:53;;;;;;;14.48;7.20;;;2.80;99.90;;;;;;5071776;28;20064;-62
2023/12/06 11:44:19;;;;;;;11.18;7.00;;;2.80;99.90;;;;;;5071666;28;20047;-61
2023/12/06 11:46:52;;;;;;;13.55;6.93;;;2.80;99.90;;;;;;5071629;28;20040;-62
2023/12/06 11:49:27;;;;;;;13.90;7.50;;;2.80;99.90;;;;;;5071425;28;20037;-61
2023/12/06 11:52:00;;;;;;;13.65;6.88;;;2.90;99.90;;;;;;5071350;28;20047;-61
2023/12/06 11:54:27;;;;;;;16.70;8.32;;;2.80;99.90;;;;;;5070481;28;20082;-62
2023/12/06 11:57:03;;;;;;;12.80;6.97;;;2.80;99.90;;;;;;5071428;28;20381;-62
2023/12/06 11:59:29;;;;;;;13.88;7.53;;;2.80;99.90;;;;;;5071118;28;20500;-61
2023/12/06 12:01:55;;;;;;;14.02;6.70;;;2.80;99.90;;;;;;5071539;28;20119;-61
2023/12/06 12:04:21;;;;;;;12.13;6.68;;;2.80;99.90;;;;;;5071302;28;20044;-61
2023/12/06 12:06:47;;;;;;;11.02;6.63;;;2.90;99.90;;;;;;5072032;28;20119;-50
2023/12/06 12:09:14;;;;;;;11.13;6.13;;;2.90;99.90;;;;;;5070614;28;20568;-49
2023/12/06 12:11:43;;;;;;;12.10;6.53;;;3.00;99.90;;;;;;5071788;28;20093;-48
2023/12/06 12:14:09;;;;;;;11.80;6.90;;;2.90;99.90;;;;;;5071914;28;20032;-48
2023/12/06 12:16:36;;;;;;;10.55;6.63;;;2.90;99.90;;;;;;5072195;28;20637;-47
2023/12/06 12:19:03;;;;;;;10.70;6.35;;;2.90;99.90;;;;;;5071965;28;20080;-47
2023/12/06 12:21:29;;;;;;;11.02;6.45;;;2.80;99.90;;;;;;5072293;28;20051;-47
2023/12/06 12:23:57;;;;;;;13.73;6.90;;;2.80;99.90;;;;;;5072161;28;20044;-46
2023/12/06 12:26:23;;;;;;;14.73;7.20;;;2.90;99.90;;;;;;5071560;28;20044;-46
2023/12/06 12:28:49;;;;;;;13.73;8.70;;;2.90;99.90;;;;;;5061691;28;20048;-47
2023/12/06 12:31:19;;;;;;;15.10;8.68;;;3.00;99.90;;;;;;5059369;28;20048;-47
2023/12/06 12:33:46;;;;;;;12.60;7.22;;;2.90;99.90;;;;;;5056962;28;20075;-48
2023/12/06 12:36:12;;;;;;;8.88;5.20;;;3.00;99.90;;;;;;5051906;28;20049;-48
2023/12/06 12:38:38;;;;;;;7.97;4.45;;;3.00;99.90;;;;;;5051790;28;20060;-46
2023/12/06 12:41:08;;;;;;;7.15;4.00;;;2.90;99.90;;;;;;5051749;28;20122;-51